Time;durP1;ratioP1;P1;durP2;ratioP2;P2;SDS_P1;SDS_P2;PMS_P1;PMS_P2;Temp;Humidity;BMP_temperature;BMP_pressure;BME280_temperature;BME280_humidity;BME280_pressure;Samples;Min_cycle;Max_cycle;Signal;HPM_P1;HPM_P2
2023/05/18 00:01:09;;;;;;;5.10;2.10;;;8.70;1.00;;;;;;5057542;28;20874;-79
2023/05/18 00:03:36;;;;;;;9.13;2.93;;;8.70;1.00;;;;;;5056563;28;20466;-80
2023/05/18 00:06:06;;;;;;;4.40;2.20;;;8.70;1.00;;;;;;5056586;28;21042;-81
2023/05/18 00:08:33;;;;;;;3.40;2.10;;;8.60;95.50;;;;;;5057442;28;20460;-80
2023/05/18 00:11:01;;;;;;;8.90;2.23;;;8.60;99.90;;;;;;5056954;28;20492;-81
2023/05/18 00:13:28;;;;;;;4.70;2.43;;;8.60;99.90;;;;;;5055505;28;20454;-79
2023/05/18 00:15:55;;;;;;;10.93;2.73;;;8.50;99.90;;;;;;5045710;28;20453;-79
2023/05/18 00:18:25;;;;;;;6.50;2.67;;;8.60;99.90;;;;;;5069327;28;20463;-80
2023/05/18 00:20:57;;;;;;;6.00;2.50;;;8.60;99.90;;;;;;5076976;28;20527;-80
2023/05/18 00:23:25;;;;;;;6.37;2.20;;;8.50;99.90;;;;;;5077205;28;20486;-79
2023/05/18 00:25:52;;;;;;;7.97;2.23;;;8.40;1.00;;;;;;5076958;28;20450;-79
2023/05/18 00:28:20;;;;;;;5.13;2.00;;;8.30;1.00;;;;;;5076701;28;20522;-79
2023/05/18 00:30:47;;;;;;;6.50;2.70;;;8.40;1.00;;;;;;5076467;28;20473;-80
2023/05/18 00:33:14;;;;;;;4.10;2.20;;;8.40;99.90;;;;;;5074005;28;20479;-78
2023/05/18 00:35:40;;;;;;;7.10;2.60;;;8.30;99.90;;;;;;5076437;28;20454;-79
2023/05/18 00:38:07;;;;;;;9.87;2.93;;;8.30;1.00;;;;;;5076395;28;20454;-80
2023/05/18 00:40:35;;;;;;;6.97;2.30;;;8.20;19.20;;;;;;5076525;28;21035;-80
2023/05/18 00:43:01;;;;;;;5.00;2.27;;;8.20;99.90;;;;;;5076943;28;20485;-80
2023/05/18 00:45:29;;;;;;;5.97;3.00;;;8.10;99.90;;;;;;5076317;28;20457;-79
2023/05/18 00:47:56;;;;;;;8.93;2.60;;;8.10;99.90;;;;;;5076316;28;20468;-79
2023/05/18 00:50:23;;;;;;;5.80;2.00;;;8.00;99.90;;;;;;5074835;28;20471;-81
2023/05/18 00:52:51;;;;;;;5.03;2.07;;;8.00;99.90;;;;;;5075929;28;20964;-79
2023/05/18 00:55:18;;;;;;;10.80;2.80;;;8.00;99.90;;;;;;5076239;28;20938;-79
2023/05/18 00:57:46;;;;;;;4.80;2.60;;;8.00;99.90;;;;;;5075923;28;20459;-80
2023/05/18 01:00:14;;;;;;;8.10;2.83;;;7.90;99.90;;;;;;5075570;28;20525;-80
2023/05/18 01:02:44;;;;;;;7.53;2.50;;;7.90;99.90;;;;;;5075485;28;20453;-79
2023/05/18 01:05:12;;;;;;;12.07;3.17;;;7.90;99.90;;;;;;5074124;28;20457;-80
2023/05/18 01:07:41;;;;;;;6.07;3.10;;;7.80;99.90;;;;;;5075548;28;20536;-79
2023/05/18 01:10:09;;;;;;;5.43;2.77;;;7.80;1.00;;;;;;5076128;28;20474;-80
2023/05/18 01:12:39;;;;;;;7.03;2.93;;;7.70;99.90;;;;;;5075325;28;21004;-80
2023/05/18 01:15:10;;;;;;;8.63;3.10;;;7.70;99.90;;;;;;5075481;28;20494;-80
2023/05/18 01:17:43;;;;;;;10.00;3.10;;;7.70;99.90;;;;;;5076126;28;20462;-80
2023/05/18 01:20:32;;;;;;;5.40;2.37;;;7.60;99.90;;;;;;5075484;28;20573;-80
2023/05/18 01:23:24;;;;;;;6.20;2.77;;;7.60;99.90;;;;;;5075318;28;20461;-81
2023/05/18 01:26:13;;;;;;;5.20;2.33;;;7.50;1.00;;;;;;5076390;28;21003;-80
2023/05/18 01:28:41;;;;;;;7.93;3.53;;;7.60;1.00;;;;;;5075842;28;20450;-80
2023/05/18 01:31:09;;;;;;;10.70;3.27;;;7.50;1.00;;;;;;5075716;28;20459;-80
2023/05/18 01:33:36;;;;;;;5.57;2.40;;;7.50;1.00;;;;;;5075282;28;20460;-80
2023/05/18 01:36:03;;;;;;;9.00;3.33;;;7.50;1.00;;;;;;5076155;28;20461;-80
2023/05/18 01:38:30;;;;;;;7.87;3.90;;;7.50;1.00;;;;;;5073923;28;20465;-80
2023/05/18 01:41:06;;;;;;;6.97;2.93;;;7.50;99.90;;;;;;5059224;28;20874;-80
2023/05/18 01:43:37;;;;;;;6.33;3.00;;;7.50;1.00;;;;;;5055557;28;20450;-80
2023/05/18 01:46:17;;;;;;;9.27;3.30;;;7.50;99.90;;;;;;5057601;28;20775;-80
2023/05/18 01:48:48;;;;;;;13.23;3.47;;;7.50;99.90;;;;;;5075983;28;20990;-80
2023/05/18 01:51:20;;;;;;;9.07;3.40;;;7.50;99.90;;;;;;5081565;28;20453;-79
2023/05/18 01:53:54;;;;;;;8.33;3.03;;;7.50;1.00;;;;;;5082577;28;20451;-79
2023/05/18 01:56:21;;;;;;;10.40;3.53;;;7.50;1.00;;;;;;5080966;28;20447;-79
2023/05/18 01:58:51;;;;;;;7.57;3.27;;;7.50;1.00;;;;;;5074567;28;20500;-79
2023/05/18 02:01:21;;;;;;;6.10;3.43;;;7.40;1.00;;;;;;5073687;28;20502;-80
2023/05/18 02:03:48;;;;;;;5.97;3.00;;;7.40;1.00;;;;;;5074045;28;20897;-79
2023/05/18 02:06:15;;;;;;;8.73;3.73;;;7.40;1.00;;;;;;5074761;28;20463;-79
2023/05/18 02:08:42;;;;;;;13.20;4.13;;;7.40;1.00;;;;;;5073919;28;20456;-79
2023/05/18 02:11:08;;;;;;;10.60;3.83;;;7.30;1.00;;;;;;5074200;28;20454;-79
2023/05/18 02:13:35;;;;;;;5.97;3.80;;;7.30;1.00;;;;;;5074080;28;20446;-80
2023/05/18 02:16:04;;;;;;;6.97;3.83;;;7.30;1.00;;;;;;5073281;28;20445;-80
2023/05/18 02:18:32;;;;;;;11.23;4.53;;;7.20;1.00;;;;;;5064107;28;20982;-80
2023/05/18 02:21:00;;;;;;;12.20;3.67;;;7.20;1.00;;;;;;5054080;28;20575;-80
2023/05/18 02:23:27;;;;;;;9.50;3.87;;;7.20;1.00;;;;;;5053230;28;20503;-79
2023/05/18 02:25:54;;;;;;;7.00;3.57;;;7.20;1.00;;;;;;5054271;28;20463;-80
2023/05/18 02:28:21;;;;;;;7.17;3.03;;;7.20;1.00;;;;;;5055205;28;20455;-81
2023/05/18 02:30:48;;;;;;;8.03;4.40;;;7.10;1.00;;;;;;5054572;28;20473;-79
2023/05/18 02:33:18;;;;;;;5.50;3.30;;;7.10;1.00;;;;;;5054485;28;20830;-81
2023/05/18 02:35:45;;;;;;;8.63;4.40;;;7.10;1.00;;;;;;5073983;28;20447;-80
2023/05/18 02:38:12;;;;;;;11.57;4.30;;;7.00;1.00;;;;;;5075864;28;20450;-80
2023/05/18 02:40:38;;;;;;;8.10;3.70;;;7.00;1.00;;;;;;5074578;28;20488;-79
2023/05/18 02:43:05;;;;;;;9.67;3.10;;;7.00;1.00;;;;;;5074572;28;20446;-80
2023/05/18 02:45:32;;;;;;;8.67;4.23;;;6.90;1.00;;;;;;5074630;28;20970;-79
2023/05/18 02:47:59;;;;;;;8.13;3.90;;;6.90;1.00;;;;;;5074788;28;20448;-80
2023/05/18 02:50:27;;;;;;;5.50;3.40;;;6.90;1.00;;;;;;5066153;28;20464;-79
2023/05/18 02:52:54;;;;;;;7.40;3.70;;;6.90;1.00;;;;;;5054845;28;20452;-81
2023/05/18 02:55:21;;;;;;;7.27;3.90;;;6.80;1.00;;;;;;5055031;28;20479;-80
2023/05/18 02:57:48;;;;;;;7.77;3.43;;;6.80;1.00;;;;;;5054343;28;20651;-81
2023/05/18 03:00:16;;;;;;;9.60;3.70;;;6.70;1.00;;;;;;5054057;28;20565;-80
2023/05/18 03:02:47;;;;;;;6.83;4.20;;;6.70;1.00;;;;;;5053847;28;20455;-80
2023/05/18 03:05:15;;;;;;;9.80;4.30;;;6.60;1.00;;;;;;5054082;28;21019;-80
2023/05/18 03:07:49;;;;;;;5.53;3.73;;;6.60;1.00;;;;;;5072217;28;20993;-80
2023/05/18 03:10:16;;;;;;;8.37;4.47;;;6.50;1.00;;;;;;5074248;28;20463;-80
2023/05/18 03:12:43;;;;;;;13.13;4.90;;;6.50;1.00;;;;;;5074113;28;20457;-82
2023/05/18 03:15:12;;;;;;;9.53;4.40;;;6.50;1.00;;;;;;5074453;28;20460;-80
2023/05/18 03:17:39;;;;;;;8.60;4.27;;;6.50;1.00;;;;;;5074308;28;20451;-80
2023/05/18 03:20:09;;;;;;;12.60;4.57;;;6.40;1.00;;;;;;5074475;28;20474;-80
2023/05/18 03:22:36;;;;;;;8.90;4.80;;;6.40;1.00;;;;;;5060815;28;20855;-80
2023/05/18 03:25:04;;;;;;;11.63;4.30;;;6.30;1.00;;;;;;5053712;28;20512;-80
2023/05/18 03:27:31;;;;;;;6.30;3.70;;;6.30;1.00;;;;;;5055409;28;20448;-80
2023/05/18 03:29:58;;;;;;;8.23;4.70;;;6.30;1.00;;;;;;5057874;28;20492;-80
2023/05/18 03:32:27;;;;;;;11.53;5.07;;;6.30;1.00;;;;;;5056809;28;20456;-77
2023/05/18 03:34:53;;;;;;;8.90;4.10;;;6.40;1.00;;;;;;5057629;28;20581;-79
2023/05/18 03:37:20;;;;;;;6.13;3.30;;;6.40;1.00;;;;;;5058580;28;20474;-79
2023/05/18 03:39:47;;;;;;;8.30;3.70;;;6.30;1.00;;;;;;5057679;28;20468;-80
2023/05/18 03:42:15;;;;;;;8.30;4.40;;;6.30;1.00;;;;;;5056481;28;20598;-78
2023/05/18 03:44:42;;;;;;;11.23;4.67;;;6.30;1.00;;;;;;5057573;28;20458;-79
2023/05/18 03:47:10;;;;;;;8.00;4.10;;;6.30;1.00;;;;;;5057335;28;20465;-79
2023/05/18 03:49:37;;;;;;;8.13;4.50;;;6.30;1.00;;;;;;5056817;28;20447;-80
2023/05/18 03:52:04;;;;;;;10.33;4.17;;;6.30;1.00;;;;;;5057656;28;20440;-79
2023/05/18 03:54:31;;;;;;;13.63;5.00;;;6.30;1.00;;;;;;5070643;28;20461;-78
2023/05/18 03:56:58;;;;;;;11.43;4.70;;;6.30;1.00;;;;;;5077523;28;20500;-79
2023/05/18 03:59:26;;;;;;;7.27;3.83;;;6.30;1.00;;;;;;5078899;28;20478;-80
2023/05/18 04:01:53;;;;;;;9.10;4.30;;;6.30;7.60;;;;;;5077377;28;20499;-81
2023/05/18 04:04:22;;;;;;;14.00;4.67;;;6.30;14.60;;;;;;5076766;28;20517;-80
2023/05/18 04:06:50;;;;;;;11.20;4.47;;;6.20;13.00;;;;;;5077160;28;20930;-80
2023/05/18 04:09:17;;;;;;;6.30;4.70;;;6.30;21.60;;;;;;5070637;28;20475;-81
2023/05/18 04:11:44;;;;;;;13.10;5.57;;;6.30;21.30;;;;;;5056906;28;20447;-81
2023/05/18 04:14:12;;;;;;;8.63;4.73;;;6.30;16.40;;;;;;5056186;28;20455;-81
2023/05/18 04:16:41;;;;;;;12.87;4.80;;;6.30;12.60;;;;;;5055657;28;20456;-81
2023/05/18 04:19:09;;;;;;;8.63;4.70;;;6.40;10.50;;;;;;5056253;28;20489;-80
2023/05/18 04:21:36;;;;;;;7.40;4.30;;;6.40;17.20;;;;;;5056538;28;20578;-81
2023/05/18 04:24:04;;;;;;;8.70;4.70;;;6.50;24.60;;;;;;5056873;28;20539;-79
2023/05/18 04:26:31;;;;;;;7.30;4.13;;;6.60;19.90;;;;;;5074271;28;20467;-80
2023/05/18 04:28:59;;;;;;;9.30;4.70;;;6.60;21.50;;;;;;5076807;28;20461;-81
2023/05/18 04:31:26;;;;;;;8.47;4.60;;;6.70;5.50;;;;;;5076611;28;20922;-79
2023/05/18 04:33:54;;;;;;;13.57;4.53;;;6.70;1.00;;;;;;5076227;28;20455;-81
2023/05/18 04:36:24;;;;;;;8.33;4.30;;;6.70;1.00;;;;;;5077029;28;20453;-80
2023/05/18 04:38:51;;;;;;;8.97;4.70;;;6.80;1.00;;;;;;5075456;28;20463;-80
2023/05/18 04:41:21;;;;;;;8.53;4.83;;;6.80;1.00;;;;;;5074497;28;20486;-80
2023/05/18 04:43:49;;;;;;;10.33;5.40;;;6.90;1.00;;;;;;5076496;28;20447;-80
2023/05/18 04:46:16;;;;;;;8.63;4.77;;;7.00;1.00;;;;;;5076756;28;20505;-81
2023/05/18 04:48:43;;;;;;;8.67;4.30;;;7.10;1.00;;;;;;5076434;28;20466;-80
2023/05/18 04:51:12;;;;;;;7.27;4.80;;;7.10;1.00;;;;;;5076026;28;20443;-80
2023/05/18 04:53:38;;;;;;;7.57;4.30;;;7.20;1.00;;;;;;5075887;28;20522;-81
2023/05/18 04:56:06;;;;;;;7.33;4.70;;;7.20;1.00;;;;;;5075691;28;20450;-80
2023/05/18 04:58:34;;;;;;;11.47;5.20;;;7.30;1.00;;;;;;5075276;28;20455;-80
2023/05/18 05:01:01;;;;;;;7.30;3.97;;;7.40;1.00;;;;;;5075911;28;20514;-80
2023/05/18 05:03:28;;;;;;;7.90;4.03;;;7.40;1.00;;;;;;5076150;28;20520;-80
2023/05/18 05:05:55;;;;;;;8.80;4.50;;;7.50;1.00;;;;;;5075970;28;20458;-81
2023/05/18 05:08:23;;;;;;;11.43;4.63;;;7.60;1.00;;;;;;5077052;28;20526;-81
2023/05/18 05:10:50;;;;;;;9.50;4.70;;;7.60;1.00;;;;;;5076238;28;20464;-80
2023/05/18 05:13:17;;;;;;;7.20;4.07;;;7.70;1.00;;;;;;5074382;28;20456;-80
2023/05/18 05:15:43;;;;;;;12.70;4.90;;;7.80;99.90;;;;;;5076375;28;20458;-81
2023/05/18 05:18:10;;;;;;;7.27;4.13;;;7.90;99.90;;;;;;5076073;28;20447;-81
2023/05/18 05:20:37;;;;;;;8.33;4.70;;;8.00;99.90;;;;;;5076663;28;20582;-81
2023/05/18 05:23:04;;;;;;;6.07;3.83;;;8.00;99.90;;;;;;5076183;28;20452;-82
2023/05/18 05:25:32;;;;;;;11.20;4.97;;;8.10;99.90;;;;;;5079758;28;20443;-79
2023/05/18 05:27:59;;;;;;;8.10;4.43;;;8.00;99.90;;;;;;5065698;28;20453;-79
2023/05/18 05:30:26;;;;;;;7.07;3.70;;;8.10;99.90;;;;;;5062993;28;20479;-79
2023/05/18 05:32:52;;;;;;;10.70;5.10;;;8.20;99.90;;;;;;5056472;28;20452;-79
2023/05/18 05:35:19;;;;;;;6.43;4.00;;;8.10;99.90;;;;;;5056097;28;20453;-80
2023/05/18 05:37:46;;;;;;;10.73;4.10;;;8.20;99.90;;;;;;5056295;28;20465;-79
2023/05/18 05:40:13;;;;;;;5.57;3.90;;;8.30;99.90;;;;;;5055344;28;20555;-81
2023/05/18 05:42:43;;;;;;;9.30;4.17;;;8.40;99.90;;;;;;5054665;28;20490;-79
2023/05/18 05:45:10;;;;;;;7.83;4.27;;;8.40;99.90;;;;;;5055358;28;20561;-81
2023/05/18 05:47:37;;;;;;;11.63;3.83;;;8.50;66.20;;;;;;5054754;28;20463;-80
2023/05/18 05:50:04;;;;;;;8.80;4.00;;;8.60;1.00;;;;;;5055061;28;20471;-84
2023/05/18 05:52:31;;;;;;;7.70;4.23;;;8.60;1.00;;;;;;5056123;28;20437;-83
2023/05/18 05:54:58;;;;;;;9.30;3.33;;;8.60;1.00;;;;;;5056276;28;21010;-84
2023/05/18 05:57:25;;;;;;;5.70;3.50;;;8.70;1.00;;;;;;5056274;28;20449;-83
2023/05/18 05:59:53;;;;;;;7.67;3.87;;;8.80;1.00;;;;;;5056837;28;20856;-83
2023/05/18 06:02:20;;;;;;;12.10;3.80;;;8.90;1.00;;;;;;5057200;28;20496;-84
2023/05/18 06:04:47;;;;;;;6.47;3.00;;;8.90;1.00;;;;;;5058270;28;20457;-82
2023/05/18 06:07:14;;;;;;;6.50;3.13;;;8.90;99.90;;;;;;5056517;28;20439;-84
2023/05/18 06:09:41;;;;;;;6.60;3.33;;;9.00;99.90;;;;;;5056509;28;20840;-82
2023/05/18 06:12:09;;;;;;;10.93;3.43;;;9.10;99.90;;;;;;5056136;28;20446;-83
2023/05/18 06:14:35;;;;;;;6.03;3.10;;;9.20;99.90;;;;;;5055916;28;20456;-83
2023/05/18 06:17:04;;;;;;;6.63;3.20;;;9.30;99.90;;;;;;5056142;28;20541;-83
2023/05/18 06:19:31;;;;;;;7.07;3.37;;;9.40;99.90;;;;;;5056212;28;20506;-84
2023/05/18 06:21:57;;;;;;;8.13;2.83;;;9.40;99.90;;;;;;5058111;28;20483;-84
2023/05/18 06:24:24;;;;;;;5.63;2.87;;;9.50;99.90;;;;;;5077200;28;20437;-84
2023/05/18 06:26:51;;;;;;;7.87;3.33;;;9.50;1.00;;;;;;5066784;28;20538;-83
2023/05/18 06:29:18;;;;;;;9.77;3.13;;;9.60;99.90;;;;;;5036102;28;20537;-81
2023/05/18 06:31:45;;;;;;;5.97;2.73;;;9.60;1.00;;;;;;5035864;28;20477;-82
2023/05/18 06:34:13;;;;;;;8.70;3.10;;;9.70;99.90;;;;;;5036035;28;20959;-83
2023/05/18 06:36:43;;;;;;;8.13;2.60;;;9.70;99.90;;;;;;5035916;28;20468;-83
2023/05/18 06:39:10;;;;;;;8.40;3.63;;;9.80;1.00;;;;;;5036303;28;20525;-83
2023/05/18 06:41:38;;;;;;;7.30;3.00;;;9.90;1.00;;;;;;5036454;28;20511;-83
2023/05/18 06:44:09;;;;;;;7.63;3.10;;;10.00;1.00;;;;;;5038465;28;20478;-84
2023/05/18 06:46:36;;;;;;;7.87;3.33;;;10.10;1.00;;;;;;5041524;28;20460;-84
2023/05/18 06:49:03;;;;;;;8.53;3.20;;;10.20;99.90;;;;;;5035690;28;20476;-84
2023/05/18 06:51:32;;;;;;;7.83;2.60;;;10.20;1.00;;;;;;5036539;28;20457;-83
2023/05/18 06:53:58;;;;;;;23.43;4.70;;;10.20;99.90;;;;;;5036338;28;20459;-84
2023/05/18 06:56:25;;;;;;;7.00;2.70;;;10.30;99.90;;;;;;5056151;28;20535;-83
2023/05/18 06:58:55;;;;;;;5.97;2.57;;;10.50;99.90;;;;;;5056894;28;20462;-84
2023/05/18 07:01:22;;;;;;;11.03;3.07;;;10.50;1.00;;;;;;5056998;28;20498;-83
2023/05/18 07:03:49;;;;;;;8.60;2.93;;;10.50;1.00;;;;;;5060499;28;20448;-84
2023/05/18 07:06:16;;;;;;;6.83;3.20;;;10.60;99.90;;;;;;5060022;28;20455;-83
2023/05/18 07:08:46;;;;;;;9.37;3.87;;;10.70;1.00;;;;;;5060028;28;20953;-83
2023/05/18 07:11:12;;;;;;;11.33;3.33;;;10.70;1.00;;;;;;5060590;28;20459;-84
2023/05/18 07:13:40;;;;;;;9.73;3.60;;;10.70;1.00;;;;;;5060630;28;20453;-83
2023/05/18 07:16:07;;;;;;;13.33;3.77;;;10.80;63.30;;;;;;5060693;28;20458;-83
2023/05/18 07:18:34;;;;;;;9.10;3.30;;;10.90;1.00;;;;;;5061156;28;20888;-84
2023/05/18 07:21:01;;;;;;;6.80;3.67;;;10.90;1.00;;;;;;5060302;28;20480;-82
2023/05/18 07:23:28;;;;;;;6.77;2.57;;;11.00;1.00;;;;;;5060002;28;20590;-84
2023/05/18 07:25:57;;;;;;;8.37;3.20;;;11.10;1.00;;;;;;5060268;28;20515;-83
2023/05/18 07:28:24;;;;;;;8.90;3.53;;;11.10;99.90;;;;;;5061870;28;20451;-83
2023/05/18 07:33:49;;;;;;;5.37;2.60;;;11.40;1.00;;;;;;5026655;22;21013;-85
2023/05/18 07:36:16;;;;;;;11.50;3.60;;;11.60;1.00;;;;;;5025737;28;20456;-83
2023/05/18 07:38:43;;;;;;;8.87;3.83;;;11.70;99.90;;;;;;5021422;28;20901;-84
2023/05/18 07:41:12;;;;;;;9.57;3.00;;;11.80;28.80;;;;;;5023345;28;20455;-84
2023/05/18 07:43:38;;;;;;;7.20;2.87;;;11.90;1.00;;;;;;5021869;28;20542;-84
2023/05/18 07:46:06;;;;;;;6.10;2.67;;;11.90;1.00;;;;;;5022123;28;20538;-84
2023/05/18 07:48:33;;;;;;;7.87;2.77;;;12.00;99.90;;;;;;5021770;28;20458;-84
2023/05/18 07:50:59;;;;;;;5.93;2.90;;;12.00;99.90;;;;;;5023097;28;20484;-84
2023/05/18 07:53:27;;;;;;;8.00;2.90;;;12.00;99.90;;;;;;5027037;28;20482;-83
2023/05/18 07:55:54;;;;;;;6.97;2.70;;;12.20;99.90;;;;;;5019777;28;20562;-83
2023/05/18 07:58:22;;;;;;;10.40;2.90;;;12.30;99.90;;;;;;5018764;28;20490;-84
2023/05/18 08:00:50;;;;;;;6.63;2.57;;;12.50;99.90;;;;;;5019210;28;20574;-83
2023/05/18 08:03:18;;;;;;;7.53;2.50;;;12.50;99.90;;;;;;5019317;28;20487;-84
2023/05/18 08:05:46;;;;;;;6.20;3.40;;;12.60;99.90;;;;;;5019437;28;20461;-84
2023/05/18 08:08:14;;;;;;;4.77;2.17;;;12.70;86.20;;;;;;5019290;28;20516;-82
2023/05/18 08:13:23;;;;;;;6.00;2.80;;;12.90;99.90;;;;;;5018335;28;20457;-84
2023/05/18 08:15:50;;;;;;;6.50;2.63;;;13.10;92.10;;;;;;5019736;28;20445;-83
2023/05/18 08:18:22;;;;;;;8.70;2.47;;;13.40;16.60;;;;;;5021038;28;20513;-84
2023/05/18 08:20:52;;;;;;;8.23;2.93;;;13.80;1.00;;;;;;5020755;28;20559;-82
2023/05/18 08:23:26;;;;;;;7.13;2.47;;;14.20;1.00;;;;;;5020869;28;20524;-82
2023/05/18 08:25:58;;;;;;;8.23;2.77;;;14.50;1.00;;;;;;5020087;28;20519;-83
2023/05/18 08:28:27;;;;;;;8.33;3.37;;;14.90;1.00;;;;;;5020207;28;20475;-83
2023/05/18 08:30:54;;;;;;;6.60;2.60;;;15.70;1.00;;;;;;5019093;28;20535;-84
2023/05/18 08:33:22;;;;;;;9.00;2.60;;;16.50;1.00;;;;;;5019936;28;20465;-84
2023/05/18 08:35:49;;;;;;;6.13;2.73;;;17.10;1.00;;;;;;5020034;28;20485;-85
2023/05/18 08:38:18;;;;;;;9.73;2.70;;;17.70;99.90;;;;;;5020907;28;20552;-86
2023/05/18 08:40:53;;;;;;;8.93;2.20;;;17.70;99.90;;;;;;5020825;28;20481;-85
2023/05/18 08:43:26;;;;;;;7.13;2.87;;;18.10;99.90;;;;;;5019854;28;20852;-84
2023/05/18 08:46:05;;;;;;;5.20;2.37;;;18.60;99.90;;;;;;5020904;28;20458;-85
2023/05/18 08:48:33;;;;;;;10.13;3.13;;;19.30;99.90;;;;;;5020910;28;20450;-85
2023/05/18 08:51:03;;;;;;;7.73;2.83;;;19.70;99.90;;;;;;5022928;28;20504;-85
2023/05/18 08:53:32;;;;;;;6.80;2.40;;;20.20;99.90;;;;;;5022502;28;20461;-84
2023/05/18 08:56:01;;;;;;;7.83;3.03;;;20.50;99.90;;;;;;5022972;28;20540;-85
2023/05/18 08:58:42;;;;;;;5.13;2.53;;;21.10;99.90;;;;;;5022927;28;20552;-85
2023/05/18 09:01:12;;;;;;;8.43;2.40;;;21.80;99.90;;;;;;5037458;28;20425;-84
2023/05/18 09:03:39;;;;;;;6.40;2.60;;;22.10;99.90;;;;;;5036297;28;20473;-85
2023/05/18 09:06:07;;;;;;;8.73;3.97;;;22.50;99.90;;;;;;5031082;28;20509;-84
2023/05/18 09:08:34;;;;;;;6.60;2.67;;;22.50;99.90;;;;;;5019087;28;20481;-84
2023/05/18 09:11:02;;;;;;;5.13;2.33;;;22.90;99.90;;;;;;5018693;28;20515;-83
2023/05/18 09:13:30;;;;;;;6.20;2.73;;;23.70;99.90;;;;;;5018818;28;20976;-84
2023/05/18 09:15:57;;;;;;;6.60;2.73;;;24.50;99.90;;;;;;5018527;28;20430;-84
2023/05/18 09:18:25;;;;;;;4.23;2.37;;;24.70;99.90;;;;;;5018734;28;20877;-85
2023/05/18 09:20:52;;;;;;;13.00;3.33;;;25.50;99.90;;;;;;5017664;28;20494;-84
2023/05/18 09:23:19;;;;;;;4.53;2.30;;;25.90;99.90;;;;;;5017965;28;20576;-85
2023/05/18 09:25:48;;;;;;;7.13;2.60;;;26.60;99.90;;;;;;5017659;28;20450;-85
2023/05/18 09:28:26;;;;;;;8.40;2.50;;;26.80;99.90;;;;;;5018738;28;21068;-85
2023/05/18 09:30:53;;;;;;;6.53;2.43;;;27.00;99.90;;;;;;5018804;28;20560;-84
2023/05/18 09:33:22;;;;;;;7.27;2.53;;;28.00;99.90;;;;;;5018715;28;20462;-85
2023/05/18 09:35:51;;;;;;;10.60;3.00;;;28.50;99.90;;;;;;5019316;28;20843;-86
2023/05/18 09:38:22;;;;;;;5.73;3.03;;;28.60;99.90;;;;;;5018933;28;20529;-85
2023/05/18 09:40:52;;;;;;;6.53;3.03;;;28.80;99.90;;;;;;5017963;28;20496;-85
2023/05/18 09:43:21;;;;;;;8.30;2.87;;;29.10;99.90;;;;;;5020846;28;20505;-85
2023/05/18 09:45:57;;;;;;;6.03;2.90;;;29.80;99.90;;;;;;5019429;28;20541;-84
2023/05/18 09:48:28;;;;;;;5.90;2.70;;;30.30;99.90;;;;;;5020151;28;20953;-84
2023/05/18 09:51:07;;;;;;;6.93;2.57;;;30.90;99.90;;;;;;5019306;28;20478;-84
2023/05/18 09:53:40;;;;;;;7.43;2.70;;;30.00;99.90;;;;;;5019592;28;20545;-84
2023/05/18 09:56:10;;;;;;;6.80;2.47;;;29.10;99.90;;;;;;5018550;28;20481;-84
2023/05/18 09:58:40;;;;;;;8.77;2.63;;;30.60;99.90;;;;;;5019201;28;20512;-84
2023/05/18 10:01:06;;;;;;;6.23;2.27;;;30.10;99.90;;;;;;5019852;28;20486;-84
2023/05/18 10:03:36;;;;;;;7.00;2.40;;;29.70;99.90;;;;;;5018494;28;20479;-82
2023/05/18 10:06:06;;;;;;;9.30;3.07;;;30.90;99.90;;;;;;5018703;28;20567;-83
2023/05/18 10:08:34;;;;;;;5.63;2.57;;;31.40;99.90;;;;;;5018176;28;20545;-84
2023/05/18 10:11:01;;;;;;;9.50;3.10;;;31.20;99.90;;;;;;5018555;28;20474;-83
2023/05/18 10:13:30;;;;;;;4.73;2.27;;;31.40;99.90;;;;;;5018475;28;20521;-84
2023/05/18 10:15:58;;;;;;;8.10;3.07;;;31.80;99.90;;;;;;5018281;28;20496;-83
2023/05/18 10:18:26;;;;;;;6.97;3.37;;;31.90;99.90;;;;;;5017972;28;20464;-83
2023/05/18 10:20:55;;;;;;;6.47;3.00;;;31.80;99.90;;;;;;5018424;28;20473;-84
2023/05/18 10:23:25;;;;;;;7.83;2.60;;;32.20;99.90;;;;;;5017592;28;20591;-83
2023/05/18 10:25:53;;;;;;;4.73;2.40;;;32.80;99.90;;;;;;5017809;28;20839;-83
2023/05/18 10:28:24;;;;;;;5.40;2.37;;;33.00;99.90;;;;;;5018146;28;20544;-84
2023/05/18 10:30:53;;;;;;;7.40;3.03;;;33.80;99.90;;;;;;5018217;28;20490;-84
2023/05/18 10:33:22;;;;;;;6.73;3.23;;;34.40;99.90;;;;;;5017373;28;20457;-83
2023/05/18 10:35:49;;;;;;;5.13;3.00;;;33.70;99.90;;;;;;5018763;28;20529;-84
2023/05/18 10:38:20;;;;;;;5.03;2.80;;;33.70;99.90;;;;;;5021899;28;20450;-84
2023/05/18 10:40:50;;;;;;;5.10;2.67;;;33.50;99.90;;;;;;5022545;28;20539;-84
2023/05/18 10:43:20;;;;;;;6.27;2.70;;;34.20;99.90;;;;;;5022350;28;20940;-85
2023/05/18 10:45:50;;;;;;;6.97;3.10;;;34.80;99.90;;;;;;5022209;28;20472;-85
2023/05/18 10:48:18;;;;;;;9.93;3.00;;;34.70;99.90;;;;;;5022243;28;20463;-85
2023/05/18 10:50:48;;;;;;;5.60;3.00;;;33.70;99.90;;;;;;5022097;28;20553;-85
2023/05/18 10:53:17;;;;;;;5.77;2.90;;;33.70;99.90;;;;;;5022896;28;20453;-83
2023/05/18 10:55:44;;;;;;;6.43;2.90;;;34.20;99.90;;;;;;5023470;28;20540;-84
2023/05/18 10:58:14;;;;;;;6.40;2.37;;;35.30;99.90;;;;;;5021466;28;20449;-84
2023/05/18 11:00:44;;;;;;;7.33;2.70;;;34.90;99.90;;;;;;5022770;28;20512;-86
2023/05/18 11:03:13;;;;;;;6.50;2.60;;;33.80;99.90;;;;;;5022683;28;20495;-84
2023/05/18 11:05:40;;;;;;;5.90;3.30;;;31.50;99.90;;;;;;5022096;28;20453;-85
2023/05/18 11:08:08;;;;;;;7.03;2.97;;;30.80;99.90;;;;;;5021902;28;20464;-84
2023/05/18 11:10:39;;;;;;;5.87;2.27;;;32.20;99.90;;;;;;5021738;28;20556;-84
2023/05/18 11:13:07;;;;;;;7.40;4.10;;;33.10;99.90;;;;;;5023165;28;20473;-84
2023/05/18 11:16:06;;;;;;;4.70;2.20;;;33.90;99.90;;;;;;5024146;28;20504;-84
2023/05/18 11:18:36;;;;;;;4.23;2.10;;;34.30;99.90;;;;;;5022444;28;20464;-84
2023/05/18 11:21:03;;;;;;;8.27;2.50;;;32.80;99.90;;;;;;5023169;28;20542;-84
2023/05/18 11:23:32;;;;;;;6.33;3.13;;;32.80;99.90;;;;;;5022415;28;21004;-85
2023/05/18 11:26:03;;;;;;;8.57;2.63;;;33.60;99.90;;;;;;5022453;28;20481;-84
2023/05/18 11:28:30;;;;;;;8.57;3.47;;;33.90;99.90;;;;;;5023002;28;21284;-84
2023/05/18 11:30:57;;;;;;;6.07;3.00;;;34.30;99.90;;;;;;5022900;28;20565;-85
2023/05/18 11:33:28;;;;;;;3.87;2.47;;;34.40;99.90;;;;;;5024855;28;20462;-84
2023/05/18 11:36:05;;;;;;;8.80;3.30;;;33.80;99.90;;;;;;5022277;28;20461;-84
2023/05/18 11:38:51;;;;;;;8.67;3.20;;;34.00;99.90;;;;;;5021738;28;20468;-85
2023/05/18 11:41:34;;;;;;;7.53;2.50;;;34.80;99.90;;;;;;5022824;28;20463;-83
2023/05/18 11:44:08;;;;;;;7.07;3.43;;;35.60;99.90;;;;;;5022346;28;20497;-84
2023/05/18 11:46:35;;;;;;;5.80;3.33;;;36.20;99.90;;;;;;5024449;28;20465;-87
2023/05/18 11:49:07;;;;;;;7.53;2.80;;;36.70;99.90;;;;;;5022434;28;20474;-84
2023/05/18 11:51:54;;;;;;;9.40;3.20;;;37.70;99.90;;;;;;5023164;28;20457;-86
2023/05/18 11:54:23;;;;;;;7.53;2.90;;;37.70;99.90;;;;;;5024386;28;20454;-83
2023/05/18 11:56:51;;;;;;;7.53;2.50;;;37.80;99.90;;;;;;5023139;28;20537;-84
2023/05/18 11:59:30;;;;;;;6.30;2.93;;;37.50;99.90;;;;;;5022368;28;20549;-84
2023/05/18 12:01:59;;;;;;;6.27;2.30;;;36.90;99.90;;;;;;5022175;28;20445;-84
2023/05/18 12:04:28;;;;;;;5.03;2.50;;;37.20;99.90;;;;;;5021791;28;20490;-85
2023/05/18 12:06:56;;;;;;;6.50;3.17;;;37.10;99.90;;;;;;5021632;28;20438;-84
2023/05/18 12:09:23;;;;;;;6.27;3.00;;;37.40;99.90;;;;;;5021607;28;21085;-84
2023/05/18 12:11:50;;;;;;;6.03;2.80;;;36.30;99.90;;;;;;5021666;28;20464;-85
2023/05/18 12:14:20;;;;;;;9.07;3.23;;;35.80;99.90;;;;;;5021913;28;20460;-85
2023/05/18 12:16:47;;;;;;;6.40;2.73;;;35.90;99.90;;;;;;5022341;28;20512;-85
2023/05/18 12:19:15;;;;;;;6.40;2.83;;;36.60;99.90;;;;;;5022035;28;20556;-85
2023/05/18 12:21:43;;;;;;;5.70;2.93;;;36.90;99.90;;;;;;5023287;28;20502;-85
2023/05/18 12:24:10;;;;;;;5.50;3.00;;;37.50;99.90;;;;;;5022583;28;20564;-85
2023/05/18 12:26:37;;;;;;;8.97;2.80;;;37.50;99.90;;;;;;5022955;28;20492;-85
2023/05/18 12:29:04;;;;;;;7.20;3.57;;;37.40;99.90;;;;;;5023276;28;20549;-84
2023/05/18 12:31:31;;;;;;;5.03;2.47;;;36.30;99.90;;;;;;5022049;28;20524;-84
2023/05/18 12:34:01;;;;;;;5.70;2.30;;;35.50;99.90;;;;;;5022930;28;20436;-85
2023/05/18 12:36:27;;;;;;;5.70;2.53;;;36.20;99.90;;;;;;5024070;28;20464;-85
2023/05/18 12:38:56;;;;;;;6.60;2.90;;;36.50;99.90;;;;;;5022275;28;20513;-85
2023/05/18 12:41:23;;;;;;;6.23;2.50;;;37.00;99.90;;;;;;5022800;28;20529;-84
2023/05/18 12:43:53;;;;;;;3.97;2.17;;;37.70;99.90;;;;;;5021844;28;21101;-84
2023/05/18 12:46:21;;;;;;;6.53;2.43;;;38.40;99.90;;;;;;5022326;28;20453;-85
2023/05/18 12:48:56;;;;;;;9.23;2.77;;;38.00;99.90;;;;;;5022294;28;20950;-85
2023/05/18 12:51:24;;;;;;;6.50;2.33;;;37.30;99.90;;;;;;5022181;28;20449;-87
2023/05/18 12:53:51;;;;;;;5.40;3.10;;;36.30;99.90;;;;;;5022310;28;20446;-84
2023/05/18 12:56:19;;;;;;;5.13;2.77;;;36.40;99.90;;;;;;5022383;28;21014;-85
2023/05/18 12:58:57;;;;;;;4.80;2.33;;;36.90;99.90;;;;;;5021627;28;20454;-86
2023/05/18 13:01:24;;;;;;;6.90;3.37;;;37.70;99.90;;;;;;5021070;28;20480;-84
2023/05/18 13:03:56;;;;;;;6.27;2.77;;;37.30;99.90;;;;;;5020992;28;20493;-84
2023/05/18 13:06:23;;;;;;;7.70;2.50;;;36.80;99.90;;;;;;5020970;28;20443;-85
2023/05/18 13:08:56;;;;;;;8.53;2.77;;;37.10;99.90;;;;;;5021567;28;20454;-85